Grayson, Louisiana
Current Conditions -  °F | °C
As of 8:53 AM on Friday 24 Oct 2014 (Local Time) from KMLU Reporting Station
Haze Haze  
Wind Chill: 11°   Ceiling: Unl
Heat Index: 11°   Visibility: 6mi
Dew Point:   Wind: 3mph
Humidity: 89%   Direction: 360°N
Pressure: 30.18"   Gusts: NA
Location:  32.05°N, 92.11°W
Report Text: KMLU 241353Z 36003KT 6SM HZ CLR 11/09 A3018 RMK AO2 SLP220 T01110094
Loading
Personal Weather Stations






























Interactive Weather Map
Tropical Storm Tracking
New forecast layout! Learn more

10-Day Weather Forecast

Advertisements
Track Severe Weather on mobile